Time,TemperatureF,DewpointF,PressureIn,WindDirection,WindDirectionDegrees,WindSpeedMPH,WindSpeedGustMPH,Humidity,HourlyPrecipIn,Conditions,Clouds,dailyrainin,SoftwareType,DateUTC
2013-03-29 00:03:00,51.8,47.4,30.05,SSW,203,0.9,0.9,85,0.00,,,0.00,WUHU216HW,2013-03-29 07:03:00,
2013-03-29 00:08:00,52.0,47.6,30.04,SSW,203,0.2,0.9,85,0.00,,,0.00,WUHU216HW,2013-03-29 07:08:00,
2013-03-29 00:13:00,52.0,47.9,30.04,SSW,203,0.7,0.7,86,0.00,,,0.00,WUHU216HW,2013-03-29 07:13:00,
2013-03-29 00:18:00,51.8,47.4,30.03,SSW,203,0.7,0.9,85,0.00,,,0.00,WUHU216HW,2013-03-29 07:18:00,
2013-03-29 00:23:00,51.8,47.7,30.03,SSW,203,0.9,0.9,86,0.00,,,0.00,WUHU216HW,2013-03-29 07:23:00,
2013-03-29 00:28:00,51.8,47.7,30.05,SSW,203,0.4,0.9,86,0.00,,,0.00,WUHU216HW,2013-03-29 07:28:00,
2013-03-29 00:33:00,51.7,47.9,30.03,WSW,248,0.4,0.9,87,0.00,,,0.00,WUHU216HW,2013-03-29 07:33:00,
2013-03-29 00:38:00,51.5,47.7,30.04,WSW,248,0.4,0.9,87,0.00,,,0.00,WUHU216HW,2013-03-29 07:38:00,
2013-03-29 00:43:00,51.5,48.0,30.03,WSW,248,0.4,0.9,88,0.00,,,0.00,WUHU216HW,2013-03-29 07:43:00,
2013-03-29 00:48:00,51.3,47.8,30.04,WSW,248,0.4,0.9,88,0.00,,,0.00,WUHU216HW,2013-03-29 07:48:00,
2013-03-29 00:54:00,51.1,47.6,30.03,WSW,248,0.4,0.7,88,0.00,,,0.00,WUHU216HW,2013-03-29 07:54:00,
2013-03-29 00:59:00,51.1,47.6,30.03,WSW,248,0.4,0.4,88,0.00,,,0.00,WUHU216HW,2013-03-29 07:59:00,
2013-03-29 01:04:00,51.1,47.6,30.04,WSW,248,0.4,0.7,88,0.00,,,0.00,WUHU216HW,2013-03-29 08:04:00,
2013-03-29 01:09:00,51.1,47.6,30.03,WSW,248,0.4,0.7,88,0.00,,,0.00,WUHU216HW,2013-03-29 08:09:00,
2013-03-29 01:14:00,50.9,47.4,30.04,WSW,248,0.4,0.7,88,0.00,,,0.00,WUHU216HW,2013-03-29 08:14:00,
2013-03-29 01:19:00,51.1,47.6,30.04,WSW,248,0.4,0.7,88,0.00,,,0.00,WUHU216HW,2013-03-29 08:19:00,
2013-03-29 01:24:00,51.1,47.6,30.03,WSW,248,0.4,0.7,88,0.00,,,0.00,WUHU216HW,2013-03-29 08:24:00,
2013-03-29 01:29:00,51.3,47.8,30.04,WSW,248,0.4,0.7,88,0.00,,,0.00,WUHU216HW,2013-03-29 08:29:00,
2013-03-29 01:34:00,51.3,47.8,30.04,SW,225,0.4,0.7,88,0.00,,,0.00,WUHU216HW,2013-03-29 08:34:00,
2013-03-29 01:39:00,51.1,47.6,30.02,SW,225,0.4,0.7,88,0.00,,,0.00,WUHU216HW,2013-03-29 08:39:00,
2013-03-29 01:44:00,51.1,47.6,30.03,SW,225,0.4,0.7,88,0.00,,,0.00,WUHU216HW,2013-03-29 08:44:00,
2013-03-29 01:49:00,50.9,47.4,30.04,SW,225,0.7,0.7,88,0.00,,,0.00,WUHU216HW,2013-03-29 08:49:00,
2013-03-29 01:54:00,50.9,47.4,30.03,SW,225,0.4,0.7,88,0.00,,,0.00,WUHU216HW,2013-03-29 08:54:00,
2013-03-29 01:59:00,50.9,47.8,30.04,SW,225,0.2,0.4,89,0.00,,,0.00,WUHU216HW,2013-03-29 08:59:00,
2013-03-29 02:04:00,50.8,47.3,30.04,SW,225,0.0,0.4,88,0.00,,,0.00,WUHU216HW,2013-03-29 09:04:00,
2013-03-29 02:09:00,50.8,47.3,30.03,SW,225,0.0,0.4,88,0.00,,,0.00,WUHU216HW,2013-03-29 09:09:00,
2013-03-29 02:14:00,50.9,47.4,30.03,SW,225,0.0,0.0,88,0.00,,,0.00,WUHU216HW,2013-03-29 09:14:00,
2013-03-29 02:19:00,50.9,47.4,30.02,SW,225,0.0,0.0,88,0.00,,,0.00,WUHU216HW,2013-03-29 09:19:00,
2013-03-29 02:24:00,50.9,47.4,30.03,SW,225,0.0,0.0,88,0.00,,,0.00,WUHU216HW,2013-03-29 09:24:00,
2013-03-29 02:29:00,50.9,47.4,30.02,SW,225,0.0,0.0,88,0.00,,,0.00,WUHU216HW,2013-03-29 09:29:00,
2013-03-29 02:34:00,50.8,47.6,30.02,SW,225,0.0,0.0,89,0.00,,,0.00,WUHU216HW,2013-03-29 09:34:00,
2013-03-29 02:39:00,50.6,47.1,30.01,WSW,248,0.7,0.7,88,0.00,,,0.00,WUHU216HW,2013-03-29 09:39:00,
2013-03-29 02:44:00,50.6,47.1,30.03,WSW,248,0.4,0.9,88,0.00,,,0.00,WUHU216HW,2013-03-29 09:44:00,
2013-03-29 02:49:00,50.4,46.9,30.03,WSW,248,1.1,1.1,88,0.00,,,0.00,WUHU216HW,2013-03-29 09:49:00,
2013-03-29 02:54:00,50.4,46.9,30.01,WSW,248,1.1,1.1,88,0.00,,,0.00,WUHU216HW,2013-03-29 09:54:00,
2013-03-29 02:59:00,50.6,47.1,30.02,WSW,248,0.9,1.1,88,0.00,,,0.00,WUHU216HW,2013-03-29 09:59:00,
2013-03-29 03:05:00,50.6,47.1,30.02,WSW,248,1.1,1.1,88,0.00,,,0.00,WUHU216HW,2013-03-29 10:05:00,
2013-03-29 03:10:00,50.6,46.8,30.01,WSW,248,1.1,1.1,87,0.00,,,0.00,WUHU216HW,2013-03-29 10:10:00,
2013-03-29 03:15:00,50.4,46.6,30.01,WSW,248,0.7,1.1,87,0.00,,,0.00,WUHU216HW,2013-03-29 10:15:00,
2013-03-29 03:20:00,50.4,46.6,30.02,WSW,248,1.3,1.3,87,0.00,,,0.00,WUHU216HW,2013-03-29 10:20:00,
2013-03-29 03:25:00,50.4,46.6,30.01,WSW,248,1.1,1.3,87,0.00,,,0.00,WUHU216HW,2013-03-29 10:25:00,
2013-03-29 03:30:00,50.4,46.6,30.01,WSW,248,0.7,1.6,87,0.00,,,0.00,WUHU216HW,2013-03-29 10:30:00,
2013-03-29 03:35:00,50.2,46.5,30.00,WSW,248,0.9,1.6,87,0.00,,,0.00,WUHU216HW,2013-03-29 10:35:00,
2013-03-29 03:40:00,50.4,46.6,30.01,WSW,248,0.9,1.6,87,0.00,,,0.00,WUHU216HW,2013-03-29 10:40:00,
2013-03-29 03:45:00,50.4,46.9,30.01,WSW,248,1.1,1.8,88,0.00,,,0.00,WUHU216HW,2013-03-29 10:45:00,
2013-03-29 03:50:00,50.4,46.9,29.99,WSW,248,1.3,1.8,88,0.00,,,0.00,WUHU216HW,2013-03-29 10:50:00,
2013-03-29 03:55:00,50.6,47.1,30.00,WSW,248,0.4,1.6,88,0.00,,,0.00,WUHU216HW,2013-03-29 10:55:00,
2013-03-29 04:00:00,50.6,46.8,30.02,WSW,248,0.4,1.3,87,0.00,,,0.00,WUHU216HW,2013-03-29 11:00:00,
2013-03-29 04:05:00,50.6,46.8,30.01,WSW,248,0.4,0.9,87,0.00,,,0.00,WUHU216HW,2013-03-29 11:05:00,
2013-03-29 04:10:00,50.4,46.6,30.01,WSW,248,0.0,0.9,87,0.00,,,0.00,WUHU216HW,2013-03-29 11:10:00,
2013-03-29 04:15:00,50.2,46.5,30.01,WSW,248,1.3,1.3,87,0.00,,,0.00,WUHU216HW,2013-03-29 11:15:00,
2013-03-29 04:20:00,50.2,46.7,30.00,WSW,248,0.9,1.3,88,0.00,,,0.00,WUHU216HW,2013-03-29 11:20:00,
2013-03-29 04:25:00,50.0,46.5,30.01,WSW,248,0.4,1.1,88,0.00,,,0.00,WUHU216HW,2013-03-29 11:25:00,
2013-03-29 04:30:00,50.0,46.5,30.00,WSW,248,0.7,0.7,88,0.00,,,0.00,WUHU216HW,2013-03-29 11:30:00,
2013-03-29 04:36:00,50.0,46.5,30.00,WSW,248,0.2,0.7,88,0.00,,,0.00,WUHU216HW,2013-03-29 11:36:00,
2013-03-29 04:41:00,50.0,46.5,30.00,WSW,248,0.9,1.1,88,0.00,,,0.00,WUHU216HW,2013-03-29 11:41:00,
2013-03-29 04:46:00,50.0,46.9,30.01,WSW,248,0.7,1.1,89,0.00,,,0.00,WUHU216HW,2013-03-29 11:46:00,
2013-03-29 04:51:00,50.0,46.9,30.02,WSW,248,0.7,0.7,89,0.00,,,0.00,WUHU216HW,2013-03-29 11:51:00,
2013-03-29 04:56:00,50.0,46.9,30.00,WSW,248,0.4,0.7,89,0.00,,,0.00,WUHU216HW,2013-03-29 11:56:00,
2013-03-29 05:01:00,50.0,46.5,30.01,WSW,248,0.4,1.1,88,0.00,,,0.00,WUHU216HW,2013-03-29 12:01:00,
2013-03-29 05:06:00,50.0,46.5,30.01,WSW,248,0.7,1.1,88,0.00,,,0.00,WUHU216HW,2013-03-29 12:06:00,
2013-03-29 05:11:00,50.0,46.5,30.01,SW,225,0.0,0.9,88,0.00,,,0.00,WUHU216HW,2013-03-29 12:11:00,
2013-03-29 05:16:00,50.0,46.5,29.99,SW,225,0.4,0.9,88,0.00,,,0.00,WUHU216HW,2013-03-29 12:16:00,
2013-03-29 05:21:00,50.0,46.9,30.01,SW,225,0.7,0.7,89,0.00,,,0.00,WUHU216HW,2013-03-29 12:21:00,
2013-03-29 05:26:00,50.0,46.9,30.00,SW,225,0.4,1.1,89,0.00,,,0.00,WUHU216HW,2013-03-29 12:26:00,
2013-03-29 05:31:00,50.0,46.9,30.00,SW,225,1.1,1.1,89,0.00,,,0.00,WUHU216HW,2013-03-29 12:31:00,
2013-03-29 05:36:00,50.0,46.9,30.00,SW,225,0.9,1.1,89,0.00,,,0.00,WUHU216HW,2013-03-29 12:36:00,
2013-03-29 05:41:00,50.0,47.2,29.99,SW,225,1.1,1.1,90,0.00,,,0.00,WUHU216HW,2013-03-29 12:41:00,
2013-03-29 05:47:00,50.2,47.3,30.00,SW,225,0.7,1.1,90,0.00,,,0.00,WUHU216HW,2013-03-29 12:47:00,
2013-03-29 05:52:00,50.2,47.3,30.01,SW,225,0.7,1.1,90,0.00,,,0.00,WUHU216HW,2013-03-29 12:52:00,
2013-03-29 05:57:00,50.4,47.5,30.00,SW,225,1.1,1.1,90,0.00,,,0.00,WUHU216HW,2013-03-29 12:57:00,
2013-03-29 06:02:00,50.4,47.5,30.01,SW,225,0.9,1.1,90,0.00,,,0.00,WUHU216HW,2013-03-29 13:02:00,
2013-03-29 06:07:00,50.4,47.5,30.00,SW,225,0.9,1.1,90,0.00,,,0.00,WUHU216HW,2013-03-29 13:07:00,
2013-03-29 06:12:00,50.6,47.7,30.01,SW,225,1.1,1.1,90,0.00,,,0.00,WUHU216HW,2013-03-29 13:12:00,
2013-03-29 06:17:00,50.6,47.7,30.01,SW,225,1.1,1.1,90,0.00,,,0.00,WUHU216HW,2013-03-29 13:17:00,
2013-03-29 06:22:00,50.8,48.2,30.00,WSW,248,1.1,1.1,91,0.00,,,0.00,WUHU216HW,2013-03-29 13:22:00,
2013-03-29 06:27:00,50.8,47.9,30.01,SW,225,1.3,1.3,90,0.00,,,0.00,WUHU216HW,2013-03-29 13:27:00,
2013-03-29 06:32:00,50.8,47.9,30.00,SW,225,1.1,1.3,90,0.00,,,0.00,WUHU216HW,2013-03-29 13:32:00,
2013-03-29 06:37:00,50.9,48.1,30.01,SW,225,0.7,1.1,90,0.00,,,0.00,WUHU216HW,2013-03-29 13:37:00,
2013-03-29 06:43:00,50.9,48.1,30.01,SW,225,0.2,1.1,90,0.00,,,0.00,WUHU216HW,2013-03-29 13:43:00,
2013-03-29 06:48:00,50.9,47.8,30.02,SSW,203,0.0,0.7,89,0.00,,,0.00,WUHU216HW,2013-03-29 13:48:00,
2013-03-29 06:53:00,50.9,47.8,29.99,SW,225,1.1,1.1,89,0.00,,,0.00,WUHU216HW,2013-03-29 13:53:00,
2013-03-29 06:58:00,50.9,48.1,30.01,SW,225,1.1,1.1,90,0.00,,,0.00,WUHU216HW,2013-03-29 13:58:00,
2013-03-29 07:03:00,51.1,48.2,30.01,SW,225,1.1,1.1,90,0.00,,,0.00,WUHU216HW,2013-03-29 14:03:00,
2013-03-29 07:08:00,51.1,48.2,30.00,WSW,248,1.8,1.8,90,0.00,,,0.00,WUHU216HW,2013-03-29 14:08:00,
2013-03-29 07:13:00,51.3,48.4,30.02,SW,225,0.9,1.8,90,0.00,,,0.00,WUHU216HW,2013-03-29 14:13:00,
2013-03-29 07:18:00,51.5,48.6,30.01,WSW,248,0.9,1.8,90,0.00,,,0.00,WUHU216HW,2013-03-29 14:18:00,
2013-03-29 07:23:00,51.5,48.3,30.01,SW,225,1.1,1.3,89,0.00,,,0.00,WUHU216HW,2013-03-29 14:23:00,
2013-03-29 07:28:00,51.8,48.7,30.02,WSW,248,0.9,1.6,89,0.00,,,0.00,WUHU216HW,2013-03-29 14:28:00,
2013-03-29 07:33:00,52.2,49.1,30.01,WSW,248,0.9,1.6,89,0.00,,,0.00,WUHU216HW,2013-03-29 14:33:00,
2013-03-29 07:38:00,52.4,49.2,30.02,WSW,248,1.1,1.1,89,0.00,,,0.00,WUHU216HW,2013-03-29 14:38:00,
2013-03-29 07:43:00,52.7,49.6,30.01,WSW,248,0.7,1.1,89,0.00,,,0.00,WUHU216HW,2013-03-29 14:43:00,
2013-03-29 07:48:00,52.9,49.8,30.02,WSW,248,0.7,0.9,89,0.00,,,0.00,WUHU216HW,2013-03-29 14:48:00,
2013-03-29 07:53:00,53.5,50.0,30.02,WSW,248,0.7,0.9,88,0.00,,,0.00,WUHU216HW,2013-03-29 14:53:00,
2013-03-29 07:58:00,53.6,50.1,30.01,WSW,248,0.7,1.1,88,0.00,,,0.00,WUHU216HW,2013-03-29 14:58:00,
2013-03-29 08:03:00,54.0,50.5,30.01,WSW,248,0.4,1.1,88,0.00,,,0.00,WUHU216HW,2013-03-29 15:03:00,
2013-03-29 08:09:00,54.4,50.6,30.01,WSW,248,0.4,1.1,87,0.00,,,0.00,WUHU216HW,2013-03-29 15:09:00,
2013-03-29 08:14:00,54.7,50.6,30.02,WNW,293,0.4,0.7,86,0.00,,,0.00,WUHU216HW,2013-03-29 15:14:00,
2013-03-29 08:19:00,55.3,51.1,30.01,NE,45,0.0,0.7,86,0.00,,,0.00,WUHU216HW,2013-03-29 15:19:00,
2013-03-29 08:24:00,55.8,51.7,30.01,NE,45,0.0,0.4,86,0.00,,,0.00,WUHU216HW,2013-03-29 15:24:00,
2013-03-29 08:29:00,56.2,51.3,30.01,North,0,0.0,0.7,84,0.00,,,0.00,WUHU216HW,2013-03-29 15:29:00,
2013-03-29 08:34:00,56.9,51.8,30.00,NW,315,0.0,0.7,83,0.00,,,0.00,WUHU216HW,2013-03-29 15:34:00,
2013-03-29 08:39:00,57.2,52.1,30.01,ENE,68,0.0,0.4,83,0.00,,,0.00,WUHU216HW,2013-03-29 15:39:00,
2013-03-29 08:44:00,57.8,52.0,30.01,ENE,68,0.2,0.4,81,0.00,,,0.00,WUHU216HW,2013-03-29 15:44:00,
2013-03-29 08:49:00,58.5,52.4,30.01,North,0,0.2,0.9,80,0.00,,,0.00,WUHU216HW,2013-03-29 15:49:00,
2013-03-29 08:54:00,59.2,52.7,30.02,NNE,23,0.4,1.1,79,0.00,,,0.00,WUHU216HW,2013-03-29 15:54:00,
2013-03-29 08:59:00,60.1,53.3,30.01,ESE,113,0.4,1.1,78,0.00,,,0.00,WUHU216HW,2013-03-29 15:59:00,
2013-03-29 09:04:00,60.8,53.6,30.01,NE,45,0.4,1.1,77,0.00,,,0.00,WUHU216HW,2013-03-29 16:04:00,
2013-03-29 09:09:00,61.2,53.3,30.01,NNE,23,1.1,1.3,75,0.00,,,0.00,WUHU216HW,2013-03-29 16:09:00,
2013-03-29 09:14:00,61.6,53.2,30.01,NNE,23,0.0,1.3,74,0.00,,,0.00,WUHU216HW,2013-03-29 16:14:00,
2013-03-29 09:19:00,61.9,53.6,30.01,NE,45,0.0,1.1,74,0.00,,,0.00,WUHU216HW,2013-03-29 16:19:00,
2013-03-29 09:24:00,62.3,53.5,30.01,NNE,23,1.1,1.1,73,0.00,,,0.00,WUHU216HW,2013-03-29 16:24:00,
2013-03-29 09:30:00,62.3,53.5,30.01,WSW,248,0.2,1.1,73,0.00,,,0.00,WUHU216HW,2013-03-29 16:30:00,
2013-03-29 09:35:00,62.6,53.8,30.03,NE,45,0.4,0.7,73,0.00,,,0.00,WUHU216HW,2013-03-29 16:35:00,
2013-03-29 09:40:00,62.8,54.4,30.01,North,0,1.1,1.1,74,0.00,,,0.00,WUHU216HW,2013-03-29 16:40:00,
2013-03-29 09:45:00,63.2,54.4,30.01,North,0,0.4,1.1,73,0.00,,,0.00,WUHU216HW,2013-03-29 16:45:00,
2013-03-29 09:50:00,63.5,53.6,30.01,North,0,1.1,2.5,70,0.00,,,0.00,WUHU216HW,2013-03-29 16:50:00,
2013-03-29 09:55:00,64.1,54.2,30.01,West,270,0.4,2.5,70,0.00,,,0.00,WUHU216HW,2013-03-29 16:55:00,
2013-03-29 10:00:00,64.4,54.5,30.01,WSW,248,0.7,2.0,70,0.00,,,0.00,WUHU216HW,2013-03-29 17:00:00,
2013-03-29 10:05:00,65.0,54.6,30.01,WSW,248,0.9,2.0,69,0.00,,,0.00,WUHU216HW,2013-03-29 17:05:00,
2013-03-29 10:10:00,65.5,54.3,30.01,South,180,0.4,1.3,67,0.00,,,0.00,WUHU216HW,2013-03-29 17:10:00,
2013-03-29 10:15:00,66.2,55.4,30.01,NE,45,0.7,1.3,68,0.00,,,0.00,WUHU216HW,2013-03-29 17:15:00,
2013-03-29 10:20:00,66.2,55.7,30.03,North,0,0.4,1.1,69,0.00,,,0.00,WUHU216HW,2013-03-29 17:20:00,
2013-03-29 10:25:00,66.2,55.7,30.02,North,0,2.5,2.5,69,0.00,,,0.00,WUHU216HW,2013-03-29 17:25:00,
2013-03-29 10:31:00,66.2,55.7,30.02,NNE,23,1.8,2.5,69,0.00,,,0.00,WUHU216HW,2013-03-29 17:31:00,
2013-03-29 10:36:00,66.2,55.4,30.03,NW,315,0.4,2.7,68,0.00,,,0.00,WUHU216HW,2013-03-29 17:36:00,
2013-03-29 10:41:00,66.4,54.3,30.02,North,0,2.5,3.6,65,0.00,,,0.00,WUHU216HW,2013-03-29 17:41:00,
2013-03-29 10:46:00,66.6,53.2,30.01,NNE,23,3.4,3.6,62,0.00,,,0.00,WUHU216HW,2013-03-29 17:46:00,
2013-03-29 10:51:00,66.6,53.7,30.02,NNW,338,1.3,4.0,63,0.00,,,0.00,WUHU216HW,2013-03-29 17:51:00,
2013-03-29 10:56:00,67.0,52.7,30.02,West,270,1.1,4.7,60,0.00,,,0.00,WUHU216HW,2013-03-29 17:56:00,
2013-03-29 11:01:00,67.1,52.4,30.01,ENE,68,4.0,4.7,59,0.00,,,0.00,WUHU216HW,2013-03-29 18:01:00,
2013-03-29 11:06:00,67.3,51.6,30.04,North,0,1.8,4.0,57,0.00,,,0.00,WUHU216HW,2013-03-29 18:06:00,
2013-03-29 11:12:00,67.7,51.8,30.03,North,0,0.9,3.1,57,0.00,,,0.00,WUHU216HW,2013-03-29 18:12:00,
2013-03-29 11:17:00,68.2,50.9,30.02,North,0,1.6,4.9,54,0.00,,,0.00,WUHU216HW,2013-03-29 18:17:00,
2013-03-29 11:22:00,68.4,50.6,30.03,North,0,3.4,4.9,53,0.00,,,0.00,WUHU216HW,2013-03-29 18:22:00,
2013-03-29 11:27:00,68.8,51.4,30.04,SE,135,1.1,4.7,54,0.00,,,0.00,WUHU216HW,2013-03-29 18:27:00,
2013-03-29 11:32:00,68.9,51.1,30.02,NE,45,2.7,4.7,53,0.00,,,0.00,WUHU216HW,2013-03-29 18:32:00,
2013-03-29 11:37:00,68.8,50.0,30.03,NNW,338,2.5,4.0,51,0.00,,,0.00,WUHU216HW,2013-03-29 18:37:00,
2013-03-29 11:42:00,68.4,50.6,30.04,NNE,23,2.0,4.0,53,0.00,,,0.00,WUHU216HW,2013-03-29 18:42:00,
2013-03-29 11:47:00,68.6,51.2,30.03,ENE,68,1.1,4.0,54,0.00,,,0.00,WUHU216HW,2013-03-29 18:47:00,
2013-03-29 11:52:00,68.4,50.6,30.04,NNE,23,2.5,4.9,53,0.00,,,0.00,WUHU216HW,2013-03-29 18:52:00,
2013-03-29 11:57:00,67.9,50.0,30.04,NE,45,4.7,4.9,53,0.00,,,0.00,WUHU216HW,2013-03-29 18:57:00,
2013-03-29 12:02:00,67.7,50.0,30.04,North,0,2.9,4.7,53,0.00,,,0.00,WUHU216HW,2013-03-29 19:02:00,
2013-03-29 12:07:00,67.3,50.0,30.04,WNW,293,1.3,3.4,54,0.00,,,0.00,WUHU216HW,2013-03-29 19:07:00,
2013-03-29 12:12:00,67.3,50.0,30.04,ESE,113,3.1,4.3,54,0.00,,,0.00,WUHU216HW,2013-03-29 19:12:00,
2013-03-29 12:18:00,67.3,50.0,30.04,NNW,338,2.5,4.0,54,0.00,,,0.00,WUHU216HW,2013-03-29 19:18:00,
2013-03-29 12:23:00,67.0,49.8,30.04,ENE,68,0.9,4.0,54,0.00,,,0.00,WUHU216HW,2013-03-29 19:23:00,
2013-03-29 12:28:00,67.0,49.8,30.05,ENE,68,0.4,4.0,54,0.00,,,0.00,WUHU216HW,2013-03-29 19:28:00,
2013-03-29 12:33:00,67.0,50.2,30.05,North,0,0.4,3.4,55,0.00,,,0.00,WUHU216HW,2013-03-29 19:33:00,
2013-03-29 12:38:00,67.3,50.6,30.03,North,0,0.4,2.5,55,0.00,,,0.00,WUHU216HW,2013-03-29 19:38:00,
2013-03-29 12:43:00,67.7,50.4,30.04,North,0,0.9,2.5,54,0.00,,,0.00,WUHU216HW,2013-03-29 19:43:00,
2013-03-29 12:48:00,67.9,50.6,30.04,NE,45,2.9,3.1,54,0.00,,,0.00,WUHU216HW,2013-03-29 19:48:00,
2013-03-29 12:53:00,67.9,49.6,30.04,NE,45,0.9,3.1,52,0.00,,,0.00,WUHU216HW,2013-03-29 19:53:00,
2013-03-29 12:58:00,67.9,50.0,30.04,NNE,23,1.6,2.0,53,0.00,,,0.00,WUHU216HW,2013-03-29 19:58:00,
2013-03-29 13:03:00,67.9,49.6,30.03,North,0,1.8,3.6,52,0.00,,,0.00,WUHU216HW,2013-03-29 20:03:00,
2013-03-29 13:08:00,67.9,50.0,30.03,NE,45,0.9,3.6,53,0.00,,,0.00,WUHU216HW,2013-03-29 20:08:00,
2013-03-29 13:13:00,68.0,50.2,30.04,NW,315,0.2,3.1,53,0.00,,,0.00,WUHU216HW,2013-03-29 20:13:00,
2013-03-29 13:18:00,68.2,50.4,30.04,West,270,1.3,3.1,53,0.00,,,0.00,WUHU216HW,2013-03-29 20:18:00,
2013-03-29 13:23:00,68.4,49.6,30.03,SSW,203,0.9,1.8,51,0.00,,,0.00,WUHU216HW,2013-03-29 20:23:00,
2013-03-29 13:28:00,68.8,50.0,30.03,ENE,68,1.8,1.8,51,0.00,,,0.00,WUHU216HW,2013-03-29 20:28:00,
2013-03-29 13:33:00,69.5,49.5,30.03,NNE,23,3.8,3.8,49,0.00,,,0.00,WUHU216HW,2013-03-29 20:33:00,
2013-03-29 13:39:00,69.8,51.0,30.03,NNE,23,2.7,3.8,51,0.00,,,0.00,WUHU216HW,2013-03-29 20:39:00,
2013-03-29 13:44:00,70.2,51.2,30.03,NE,45,1.8,3.4,51,0.00,,,0.00,WUHU216HW,2013-03-29 20:44:00,
2013-03-29 13:49:00,70.7,51.2,30.01,NE,45,2.2,3.4,50,0.00,,,0.00,WUHU216HW,2013-03-29 20:49:00,
2013-03-29 13:54:00,71.1,51.6,30.02,NNE,23,1.1,3.4,50,0.00,,,0.00,WUHU216HW,2013-03-29 20:54:00,
2013-03-29 13:59:00,70.9,52.4,30.03,NNE,23,2.7,4.7,52,0.00,,,0.00,WUHU216HW,2013-03-29 20:59:00,
2013-03-29 14:04:00,70.6,53.1,30.02,NNE,23,2.9,5.4,54,0.00,,,0.00,WUHU216HW,2013-03-29 21:04:00,
2013-03-29 14:09:00,70.6,54.1,30.02,NNW,338,2.2,5.4,56,0.00,,,0.00,WUHU216HW,2013-03-29 21:09:00,
2013-03-29 14:14:00,71.5,52.8,30.02,North,0,3.4,5.4,52,0.00,,,0.00,WUHU216HW,2013-03-29 21:14:00,
2013-03-29 14:19:00,71.6,53.0,30.04,NE,45,2.2,5.4,52,0.00,,,0.00,WUHU216HW,2013-03-29 21:19:00,
2013-03-29 14:24:00,72.4,54.2,30.02,ENE,68,3.6,4.0,53,0.00,,,0.00,WUHU216HW,2013-03-29 21:24:00,
2013-03-29 14:29:00,72.4,53.6,30.03,NNE,23,5.1,5.1,52,0.00,,,0.00,WUHU216HW,2013-03-29 21:29:00,
2013-03-29 14:34:00,72.5,54.4,30.04,North,0,2.9,5.1,53,0.00,,,0.00,WUHU216HW,2013-03-29 21:34:00,
2013-03-29 14:39:00,72.5,53.8,30.02,NE,45,1.6,3.1,52,0.00,,,0.00,WUHU216HW,2013-03-29 21:39:00,
2013-03-29 14:44:00,72.4,52.7,30.03,NE,45,1.1,5.8,50,0.00,,,0.00,WUHU216HW,2013-03-29 21:44:00,
2013-03-29 14:49:00,72.4,52.7,30.02,WNW,293,1.3,5.8,50,0.00,,,0.00,WUHU216HW,2013-03-29 21:49:00,
2013-03-29 14:54:00,72.4,52.7,30.03,North,0,3.4,4.0,50,0.00,,,0.00,WUHU216HW,2013-03-29 21:54:00,
2013-03-29 15:00:00,72.7,51.9,30.03,North,0,3.1,3.4,48,0.00,,,0.00,WUHU216HW,2013-03-29 22:00:00,
2013-03-29 15:05:00,72.7,52.4,30.02,ENE,68,0.4,3.8,49,0.00,,,0.00,WUHU216HW,2013-03-29 22:05:00,
2013-03-29 15:10:00,72.7,54.0,30.02,North,0,3.8,4.0,52,0.00,,,0.00,WUHU216HW,2013-03-29 22:10:00,
2013-03-29 15:15:00,71.6,53.6,30.03,ENE,68,2.5,4.3,53,0.00,,,0.00,WUHU216HW,2013-03-29 22:15:00,
2013-03-29 15:20:00,70.7,54.3,30.01,East,90,1.3,4.3,56,0.00,,,0.00,WUHU216HW,2013-03-29 22:20:00,
2013-03-29 15:25:00,70.2,53.3,30.04,NE,45,3.1,3.6,55,0.00,,,0.00,WUHU216HW,2013-03-29 22:25:00,
2013-03-29 15:30:00,69.5,53.1,30.02,ESE,113,2.2,3.1,56,0.00,,,0.00,WUHU216HW,2013-03-29 22:30:00,
2013-03-29 15:35:00,69.1,53.2,30.02,SSE,158,0.7,2.9,57,0.00,,,0.00,WUHU216HW,2013-03-29 22:35:00,
2013-03-29 15:40:00,68.8,53.4,30.02,NE,45,3.4,4.5,58,0.00,,,0.00,WUHU216HW,2013-03-29 22:40:00,
2013-03-29 15:45:00,68.2,53.4,30.02,NE,45,1.8,4.5,59,0.00,,,0.00,WUHU216HW,2013-03-29 22:45:00,
2013-03-29 15:50:00,67.7,53.3,30.03,North,0,1.1,2.9,60,0.00,,,0.00,WUHU216HW,2013-03-29 22:50:00,
2013-03-29 15:55:00,67.1,52.8,30.02,NE,45,1.8,2.9,60,0.00,,,0.00,WUHU216HW,2013-03-29 22:55:00,
2013-03-29 16:00:00,67.0,53.1,30.03,NE,45,1.1,2.9,61,0.00,,,0.00,WUHU216HW,2013-03-29 23:00:00,
2013-03-29 16:05:00,66.6,52.7,30.02,North,0,0.7,2.5,61,0.00,,,0.00,WUHU216HW,2013-03-29 23:05:00,
2013-03-29 16:10:00,66.2,53.3,30.02,North,0,0.9,2.2,63,0.00,,,0.00,WUHU216HW,2013-03-29 23:10:00,
2013-03-29 16:16:00,65.5,52.6,30.02,North,0,4.0,4.0,63,0.00,,,0.00,WUHU216HW,2013-03-29 23:16:00,
2013-03-29 16:21:00,65.2,52.7,30.03,ENE,68,1.8,4.0,64,0.00,,,0.00,WUHU216HW,2013-03-29 23:21:00,
2013-03-29 16:26:00,64.8,52.3,30.03,ENE,68,1.1,2.2,64,0.00,,,0.00,WUHU216HW,2013-03-29 23:26:00,
2013-03-29 16:31:00,64.6,52.6,30.03,ENE,68,2.7,3.1,65,0.00,,,0.00,WUHU216HW,2013-03-29 23:31:00,
2013-03-29 16:36:00,64.6,52.6,30.03,North,0,1.8,3.1,65,0.00,,,0.00,WUHU216HW,2013-03-29 23:36:00,
2013-03-29 16:41:00,64.3,52.2,30.02,NNE,23,1.1,3.1,65,0.00,,,0.00,WUHU216HW,2013-03-29 23:41:00,
2013-03-29 16:46:00,64.1,52.5,30.02,ESE,113,1.1,3.8,66,0.00,,,0.00,WUHU216HW,2013-03-29 23:46:00,
2013-03-29 16:51:00,63.7,52.1,30.02,NE,45,1.1,3.8,66,0.00,,,0.00,WUHU216HW,2013-03-29 23:51:00,
2013-03-29 16:56:00,63.5,52.4,30.02,NNE,23,2.5,2.5,67,0.00,,,0.00,WUHU216HW,2013-03-29 23:56:00,
2013-03-29 17:01:00,63.0,51.8,30.02,NNE,23,1.3,2.5,67,0.00,,,0.00,WUHU216HW,2013-03-30 00:01:00,
2013-03-29 17:06:00,62.8,52.1,30.04,North,0,1.1,2.2,68,0.00,,,0.00,WUHU216HW,2013-03-30 00:06:00,
2013-03-29 17:12:00,62.8,52.1,30.03,NNW,338,1.8,2.2,68,0.00,,,0.00,WUHU216HW,2013-03-30 00:12:00,
2013-03-29 17:17:00,62.3,52.0,30.01,North,0,2.5,3.4,69,0.00,,,0.00,WUHU216HW,2013-03-30 00:17:00,
2013-03-29 17:22:00,61.6,51.4,30.02,North,0,2.0,3.4,69,0.00,,,0.00,WUHU216HW,2013-03-30 00:22:00,
2013-03-29 17:27:00,61.0,51.3,30.01,NNW,338,1.8,2.9,70,0.00,,,0.00,WUHU216HW,2013-03-30 00:27:00,
2013-03-29 17:32:00,60.1,50.8,30.02,ENE,68,2.0,3.4,71,0.00,,,0.00,WUHU216HW,2013-03-30 00:32:00,
2013-03-29 17:37:00,60.1,51.5,30.01,North,0,1.6,3.4,73,0.00,,,0.00,WUHU216HW,2013-03-30 00:37:00,
2013-03-29 17:42:00,60.1,51.5,30.03,NW,315,2.5,3.1,73,0.00,,,0.00,WUHU216HW,2013-03-30 00:42:00,
2013-03-29 17:47:00,59.9,50.9,30.02,NNE,23,0.9,3.1,72,0.00,,,0.00,WUHU216HW,2013-03-30 00:47:00,
2013-03-29 17:52:00,60.1,51.1,30.02,NNW,338,1.1,2.0,72,0.00,,,0.00,WUHU216HW,2013-03-30 00:52:00,
2013-03-29 17:57:00,60.1,51.1,30.01,North,0,1.8,2.5,72,0.00,,,0.00,WUHU216HW,2013-03-30 00:57:00,
2013-03-29 18:02:00,59.8,51.1,30.02,North,0,1.1,2.5,73,0.00,,,0.00,WUHU216HW,2013-03-30 01:02:00,
2013-03-29 18:08:00,59.6,50.9,30.01,ENE,68,0.7,1.1,73,0.00,,,0.00,WUHU216HW,2013-03-30 01:08:00,
2013-03-29 18:13:00,59.6,50.9,30.03,NNE,23,0.7,1.1,73,0.00,,,0.00,WUHU216HW,2013-03-30 01:13:00,
2013-03-29 18:18:00,59.4,50.8,30.01,NNE,23,1.1,1.8,73,0.00,,,0.00,WUHU216HW,2013-03-30 01:18:00,
2013-03-29 18:23:00,59.2,50.6,30.02,North,0,1.1,2.0,73,0.00,,,0.00,WUHU216HW,2013-03-30 01:23:00,
2013-03-29 18:28:00,59.0,50.4,30.03,NNE,23,1.8,2.5,73,0.00,,,0.00,WUHU216HW,2013-03-30 01:28:00,
2013-03-29 18:33:00,59.0,50.4,30.02,NNE,23,0.4,2.5,73,0.00,,,0.00,WUHU216HW,2013-03-30 01:33:00,
2013-03-29 18:38:00,58.9,50.6,30.03,North,0,0.4,1.6,74,0.00,,,0.00,WUHU216HW,2013-03-30 01:38:00,
2013-03-29 18:43:00,59.0,50.8,30.02,NNE,23,0.7,1.1,74,0.00,,,0.00,WUHU216HW,2013-03-30 01:43:00,
2013-03-29 18:48:00,58.7,50.4,30.02,East,90,0.0,1.3,74,0.00,,,0.00,WUHU216HW,2013-03-30 01:48:00,
2013-03-29 18:53:00,58.7,50.4,30.03,NE,45,0.7,1.3,74,0.00,,,0.00,WUHU216HW,2013-03-30 01:53:00,
2013-03-29 18:58:00,58.7,50.4,30.03,East,90,0.2,1.1,74,0.00,,,0.00,WUHU216HW,2013-03-30 01:58:00,
2013-03-29 19:03:00,58.7,50.4,30.02,NE,45,0.0,0.7,74,0.00,,,0.00,WUHU216HW,2013-03-30 02:03:00,
2013-03-29 19:08:00,58.5,50.2,30.03,NE,45,0.2,0.9,74,0.00,,,0.00,WUHU216HW,2013-03-30 02:08:00,
2013-03-29 19:13:00,58.1,49.9,30.02,North,0,1.1,1.1,74,0.00,,,0.00,WUHU216HW,2013-03-30 02:13:00,
2013-03-29 19:18:00,58.0,50.0,30.02,North,0,0.0,1.1,75,0.00,,,0.00,WUHU216HW,2013-03-30 02:18:00,
2013-03-29 19:23:00,58.0,50.0,30.03,North,0,0.4,0.9,75,0.00,,,0.00,WUHU216HW,2013-03-30 02:23:00,
2013-03-29 19:28:00,58.0,49.7,30.02,North,0,0.2,1.1,74,0.00,,,0.00,WUHU216HW,2013-03-30 02:28:00,
2013-03-29 19:33:00,57.8,49.9,30.03,North,0,0.7,1.3,75,0.00,,,0.00,WUHU216HW,2013-03-30 02:33:00,
2013-03-29 19:38:00,57.2,49.3,30.02,North,0,0.0,1.6,75,0.00,,,0.00,WUHU216HW,2013-03-30 02:38:00,
2013-03-29 19:43:00,56.9,49.3,30.01,North,0,0.4,1.6,76,0.00,,,0.00,WUHU216HW,2013-03-30 02:43:00,
2013-03-29 19:48:00,56.7,49.1,30.01,ENE,68,0.2,1.1,76,0.00,,,0.00,WUHU216HW,2013-03-30 02:48:00,
2013-03-29 19:54:00,56.7,49.1,30.02,NE,45,0.4,1.1,76,0.00,,,0.00,WUHU216HW,2013-03-30 02:54:00,
2013-03-29 19:59:00,56.5,49.0,30.02,East,90,1.1,1.1,76,0.00,,,0.00,WUHU216HW,2013-03-30 02:59:00,
2013-03-29 20:04:00,56.3,49.1,30.00,North,0,0.2,1.1,77,0.00,,,0.00,WUHU216HW,2013-03-30 03:04:00,
2013-03-29 20:09:00,56.2,49.0,30.01,ENE,68,0.4,0.4,77,0.00,,,0.00,WUHU216HW,2013-03-30 03:09:00,
2013-03-29 20:14:00,56.0,48.8,30.02,NNE,23,0.2,0.4,77,0.00,,,0.00,WUHU216HW,2013-03-30 03:14:00,
2013-03-29 20:19:00,55.8,49.0,30.02,North,0,0.7,0.7,78,0.00,,,0.00,WUHU216HW,2013-03-30 03:19:00,
2013-03-29 20:24:00,55.6,48.5,30.01,North,0,0.2,0.7,77,0.00,,,0.00,WUHU216HW,2013-03-30 03:24:00,
2013-03-29 20:29:00,55.4,48.6,30.03,NNE,23,0.2,0.9,78,0.00,,,0.00,WUHU216HW,2013-03-30 03:29:00,
2013-03-29 20:34:00,55.3,48.5,30.02,NNE,23,0.2,0.9,78,0.00,,,0.00,WUHU216HW,2013-03-30 03:34:00,
2013-03-29 20:39:00,55.1,48.7,30.03,NNE,23,0.0,0.4,79,0.00,,,0.00,WUHU216HW,2013-03-30 03:39:00,
2013-03-29 20:44:00,55.1,48.3,30.02,ENE,68,0.0,0.4,78,0.00,,,0.00,WUHU216HW,2013-03-30 03:44:00,
2013-03-29 20:49:00,55.3,48.5,30.03,ENE,68,0.0,0.4,78,0.00,,,0.00,WUHU216HW,2013-03-30 03:49:00,
2013-03-29 20:54:00,55.3,48.5,30.03,SSW,203,0.0,0.2,78,0.00,,,0.00,WUHU216HW,2013-03-30 03:54:00,
2013-03-29 21:00:00,55.1,48.3,30.04,SW,225,0.7,0.7,78,0.00,,,0.00,WUHU216HW,2013-03-30 04:00:00,
2013-03-29 21:01:00,55.1,48.3,30.03,SW,225,0.4,0.7,78,0.00,,,0.00,WUHU216HW,2013-03-30 04:01:00,
2013-03-29 21:06:00,55.1,48.3,30.02,WSW,248,0.7,0.9,78,0.00,,,0.00,WUHU216HW,2013-03-30 04:06:00,
2013-03-29 21:11:00,55.1,48.7,30.04,WSW,248,0.4,0.9,79,0.00,,,0.00,WUHU216HW,2013-03-30 04:11:00,
2013-03-29 21:17:00,55.1,49.0,30.02,WSW,248,0.2,0.9,80,0.00,,,0.00,WUHU216HW,2013-03-30 04:17:00,
2013-03-29 21:22:00,55.3,48.8,30.03,WSW,248,0.0,0.2,79,0.00,,,0.00,WUHU216HW,2013-03-30 04:22:00,
2013-03-29 21:27:00,55.4,49.0,30.03,WSW,248,0.0,0.0,79,0.00,,,0.00,WUHU216HW,2013-03-30 04:27:00,
2013-03-29 21:32:00,55.6,49.5,30.02,SW,225,0.0,0.0,80,0.00,,,0.00,WUHU216HW,2013-03-30 04:32:00,
2013-03-29 21:37:00,55.6,49.5,30.02,SW,225,0.4,0.4,80,0.00,,,0.00,WUHU216HW,2013-03-30 04:37:00,
2013-03-29 21:42:00,55.8,49.7,30.03,SW,225,0.2,0.4,80,0.00,,,0.00,WUHU216HW,2013-03-30 04:42:00,
2013-03-29 21:47:00,55.8,49.7,30.04,WSW,248,1.3,1.3,80,0.00,,,0.00,WUHU216HW,2013-03-30 04:47:00,
2013-03-29 21:52:00,55.8,49.7,30.05,SW,225,0.0,1.8,80,0.00,,,0.00,WUHU216HW,2013-03-30 04:52:00,
2013-03-29 21:57:00,55.8,49.7,30.04,SW,225,0.0,1.8,80,0.00,,,0.00,WUHU216HW,2013-03-30 04:57:00,
2013-03-29 22:02:00,55.8,49.7,30.04,SW,225,0.0,0.0,80,0.00,,,0.00,WUHU216HW,2013-03-30 05:02:00,
2013-03-29 22:07:00,55.8,49.7,30.04,SW,225,0.4,0.4,80,0.00,,,0.00,WUHU216HW,2013-03-30 05:07:00,
2013-03-29 22:12:00,55.8,49.3,30.03,SW,225,0.0,0.4,79,0.00,,,0.00,WUHU216HW,2013-03-30 05:12:00,
2013-03-29 22:17:00,55.6,49.5,30.04,SW,225,0.0,0.4,80,0.00,,,0.00,WUHU216HW,2013-03-30 05:17:00,
2013-03-29 22:22:00,55.8,49.3,30.04,SW,225,0.0,0.0,79,0.00,,,0.00,WUHU216HW,2013-03-30 05:22:00,
2013-03-29 22:27:00,55.8,49.3,30.04,SW,225,0.0,0.0,79,0.00,,,0.00,WUHU216HW,2013-03-30 05:27:00,
2013-03-29 22:32:00,55.8,49.3,30.04,SW,225,0.0,0.0,79,0.00,,,0.00,WUHU216HW,2013-03-30 05:32:00,
2013-03-29 22:37:00,55.8,49.3,30.04,SW,225,0.0,0.0,79,0.00,,,0.00,WUHU216HW,2013-03-30 05:37:00,
2013-03-29 22:43:00,55.8,49.3,30.04,SW,225,0.0,0.0,79,0.00,,,0.00,WUHU216HW,2013-03-30 05:43:00,
2013-03-29 22:48:00,55.8,49.3,30.05,SW,225,0.0,0.0,79,0.00,,,0.00,WUHU216HW,2013-03-30 05:48:00,
2013-03-29 22:53:00,55.8,49.7,30.03,SW,225,0.9,0.9,80,0.00,,,0.00,WUHU216HW,2013-03-30 05:53:00,
2013-03-29 22:58:00,55.6,49.1,30.03,SW,225,0.4,0.9,79,0.00,,,0.00,WUHU216HW,2013-03-30 05:58:00,
2013-03-29 23:03:00,55.8,49.3,30.04,SW,225,0.0,0.4,79,0.00,,,0.00,WUHU216HW,2013-03-30 06:03:00,
2013-03-29 23:08:00,55.8,49.3,30.04,SW,225,0.0,0.4,79,0.00,,,0.00,WUHU216HW,2013-03-30 06:08:00,
2013-03-29 23:13:00,55.8,49.3,30.04,SW,225,0.0,0.0,79,0.00,,,0.00,WUHU216HW,2013-03-30 06:13:00,
2013-03-29 23:18:00,55.8,49.7,30.04,SW,225,0.4,0.7,80,0.00,,,0.00,WUHU216HW,2013-03-30 06:18:00,
2013-03-29 23:23:00,55.8,49.3,30.04,SW,225,0.0,0.7,79,0.00,,,0.00,WUHU216HW,2013-03-30 06:23:00,
2013-03-29 23:28:00,56.0,49.5,30.05,SW,225,0.0,0.0,79,0.00,,,0.00,WUHU216HW,2013-03-30 06:28:00,
2013-03-29 23:33:00,56.0,49.5,30.03,WNW,293,0.0,0.0,79,0.00,,,0.00,WUHU216HW,2013-03-30 06:33:00,
2013-03-29 23:38:00,56.0,49.5,30.04,WNW,293,0.0,0.0,79,0.00,,,0.00,WUHU216HW,2013-03-30 06:38:00,
2013-03-29 23:43:00,56.0,49.5,30.04,West,270,0.0,0.0,79,0.00,,,0.00,WUHU216HW,2013-03-30 06:43:00,
2013-03-29 23:48:00,56.0,49.5,30.03,West,270,0.0,0.0,79,0.00,,,0.00,WUHU216HW,2013-03-30 06:48:00,
2013-03-29 23:53:00,56.0,49.5,30.03,West,270,0.0,0.0,79,0.00,,,0.00,WUHU216HW,2013-03-30 06:53:00,
2013-03-29 23:58:00,55.8,49.3,30.04,NW,315,0.0,0.0,79,0.00,,,0.00,WUHU216HW,2013-03-30 06:58:00,